Time;durP1;ratioP1;P1;durP2;ratioP2;P2;SDS_P1;SDS_P2;PMS_P1;PMS_P2;Temp;Humidity;BMP_temperature;BMP_pressure;BME280_temperature;BME280_humidity;BME280_pressure;Samples;Min_cycle;Max_cycle;Signal;HPM_P1;HPM_P2
2021/09/16 00:00:30;;;;;;;4.70;1.37;;;18.50;82.50;;;;;;5094691;28;20487;-76
2021/09/16 00:02:57;;;;;;;3.70;1.30;;;18.50;82.70;;;;;;5095146;28;20862;-76
2021/09/16 00:05:23;;;;;;;6.23;1.80;;;18.50;82.40;;;;;;5095099;28;20431;-76
2021/09/16 00:07:50;;;;;;;5.67;1.73;;;18.40;82.40;;;;;;5094757;28;20932;-76
2021/09/16 00:10:17;;;;;;;4.70;2.00;;;18.40;82.50;;;;;;5094740;28;20474;-76
2021/09/16 00:12:44;;;;;;;5.73;1.30;;;18.50;82.60;;;;;;5094909;28;20440;-76
2021/09/16 00:15:12;;;;;;;3.83;1.53;;;18.50;82.50;;;;;;5094865;28;20451;-76
2021/09/16 00:17:40;;;;;;;2.83;1.53;;;18.50;82.10;;;;;;5094748;28;20452;-76
2021/09/16 00:20:08;;;;;;;3.83;1.40;;;18.50;81.90;;;;;;5094617;28;20525;-76
2021/09/16 00:22:35;;;;;;;4.70;1.60;;;18.40;81.40;;;;;;5094738;28;20444;-76
2021/09/16 00:25:02;;;;;;;4.20;1.30;;;18.40;81.50;;;;;;5094629;28;20452;-76
2021/09/16 00:27:29;;;;;;;4.40;1.30;;;18.30;81.50;;;;;;5094704;28;20439;-76
2021/09/16 00:29:55;;;;;;;4.00;1.60;;;18.30;82.10;;;;;;5094224;28;20466;-76
2021/09/16 00:32:22;;;;;;;2.70;1.50;;;18.20;81.90;;;;;;5095101;28;20456;-76
2021/09/16 00:34:50;;;;;;;5.10;1.40;;;18.20;82.00;;;;;;5094468;28;20446;-76
2021/09/16 00:37:17;;;;;;;5.30;1.73;;;18.20;82.10;;;;;;5094165;28;20447;-76
2021/09/16 00:39:44;;;;;;;1.97;1.13;;;18.20;81.60;;;;;;5094297;28;20468;-76
2021/09/16 00:42:14;;;;;;;3.43;1.83;;;18.20;81.60;;;;;;5094670;28;20444;-76
2021/09/16 00:44:41;;;;;;;2.53;1.03;;;18.10;81.30;;;;;;5094475;28;20534;-76
2021/09/16 00:47:08;;;;;;;2.50;1.50;;;18.10;81.20;;;;;;5094301;28;20520;-76
2021/09/16 00:49:35;;;;;;;4.80;1.50;;;18.00;81.20;;;;;;5094167;28;20467;-76
2021/09/16 00:52:05;;;;;;;2.67;1.23;;;18.00;81.70;;;;;;5093056;28;20929;-76
2021/09/16 00:54:34;;;;;;;2.67;1.47;;;18.00;81.40;;;;;;5094206;28;20435;-76
2021/09/16 00:57:02;;;;;;;2.97;1.30;;;17.90;80.70;;;;;;5093816;28;20447;-76
2021/09/16 00:59:31;;;;;;;3.60;1.20;;;17.80;80.50;;;;;;5094236;28;20856;-76
2021/09/16 01:01:58;;;;;;;4.30;1.30;;;17.80;81.30;;;;;;5094016;28;20475;-76
2021/09/16 01:04:25;;;;;;;6.03;1.43;;;17.80;81.70;;;;;;5093693;28;20444;-76
2021/09/16 01:06:52;;;;;;;4.57;1.83;;;17.80;81.30;;;;;;5093617;28;20501;-76
2021/09/16 01:09:20;;;;;;;4.27;1.50;;;17.90;81.60;;;;;;5093719;28;20490;-76
2021/09/16 01:11:47;;;;;;;2.70;1.30;;;17.90;81.50;;;;;;5093885;28;20436;-76
2021/09/16 01:14:22;;;;;;;3.60;1.77;;;17.80;81.10;;;;;;5093860;28;20455;-76
2021/09/16 01:16:49;;;;;;;2.00;1.60;;;17.90;80.80;;;;;;5093785;28;20432;-76
2021/09/16 01:19:16;;;;;;;7.30;1.83;;;17.90;80.90;;;;;;5093288;28;20952;-76
2021/09/16 01:21:43;;;;;;;1.87;1.33;;;17.90;80.80;;;;;;5093640;28;20479;-76
2021/09/16 01:24:11;;;;;;;2.63;1.70;;;17.90;80.40;;;;;;5093714;28;20443;-76
2021/09/16 01:26:38;;;;;;;3.30;1.70;;;17.90;80.10;;;;;;5093365;28;20952;-76
2021/09/16 01:29:05;;;;;;;3.93;1.40;;;17.80;79.60;;;;;;5093268;28;20937;-75
2021/09/16 01:31:36;;;;;;;1.90;1.67;;;17.90;79.70;;;;;;5093607;28;20439;-76
2021/09/16 01:34:05;;;;;;;2.30;1.43;;;17.90;80.10;;;;;;5093345;28;20432;-76
2021/09/16 01:36:32;;;;;;;4.10;1.80;;;17.80;80.10;;;;;;5093577;28;20443;-76
2021/09/16 01:38:59;;;;;;;6.50;1.70;;;17.90;80.40;;;;;;5093261;28;20439;-76
2021/09/16 01:41:27;;;;;;;3.33;1.83;;;17.80;80.40;;;;;;5093482;28;20506;-75
2021/09/16 01:43:54;;;;;;;2.67;1.93;;;17.80;80.30;;;;;;5093507;28;20435;-76
2021/09/16 01:46:20;;;;;;;4.27;1.60;;;17.80;80.20;;;;;;5093515;28;20466;-76
2021/09/16 01:48:47;;;;;;;5.30;2.00;;;17.70;80.80;;;;;;5093120;28;20990;-76
2021/09/16 01:51:14;;;;;;;2.40;1.80;;;17.70;81.00;;;;;;5093315;28;20462;-76
2021/09/16 01:53:41;;;;;;;4.97;1.93;;;17.60;81.60;;;;;;5093131;28;20446;-76
2021/09/16 01:56:08;;;;;;;1.87;1.50;;;17.60;82.00;;;;;;5093400;28;20439;-76
2021/09/16 01:58:37;;;;;;;4.63;1.80;;;17.50;81.90;;;;;;5093392;28;20490;-76
2021/09/16 02:01:04;;;;;;;4.37;1.90;;;17.50;81.70;;;;;;5093268;28;20665;-76
2021/09/16 02:03:31;;;;;;;9.03;2.20;;;17.50;81.70;;;;;;5096069;28;20447;-76
2021/09/16 02:05:58;;;;;;;4.93;2.83;;;17.50;81.70;;;;;;5097378;28;20428;-75
2021/09/16 02:08:25;;;;;;;8.40;1.90;;;17.40;82.00;;;;;;5096952;28;20794;-76
2021/09/16 02:10:52;;;;;;;4.80;2.20;;;17.30;82.10;;;;;;5096766;28;20969;-75
2021/09/16 02:13:19;;;;;;;3.43;1.90;;;17.20;82.30;;;;;;5097265;28;20446;-75
2021/09/16 02:15:47;;;;;;;6.30;2.23;;;17.10;82.70;;;;;;5097148;28;20447;-75
2021/09/16 02:18:14;;;;;;;8.80;2.30;;;17.10;83.40;;;;;;5097121;28;20467;-76
2021/09/16 02:20:41;;;;;;;3.97;1.83;;;17.00;83.40;;;;;;5096942;28;20479;-75
2021/09/16 02:23:08;;;;;;;5.60;2.20;;;16.90;83.70;;;;;;5097015;28;20444;-76
2021/09/16 02:25:34;;;;;;;5.73;2.37;;;16.90;83.90;;;;;;5096949;28;20801;-75
2021/09/16 02:28:01;;;;;;;7.37;2.40;;;16.80;84.40;;;;;;5096926;28;20787;-76
2021/09/16 02:30:28;;;;;;;4.80;2.53;;;16.80;84.90;;;;;;5097123;28;20459;-75
2021/09/16 02:32:56;;;;;;;5.07;2.57;;;16.70;84.90;;;;;;5096831;28;20454;-75
2021/09/16 02:35:23;;;;;;;4.63;2.83;;;16.70;85.00;;;;;;5096843;28;20447;-75
2021/09/16 02:37:49;;;;;;;7.10;2.90;;;16.60;85.50;;;;;;5096789;28;20440;-75
2021/09/16 02:40:16;;;;;;;5.97;3.60;;;16.60;86.30;;;;;;5096537;28;20520;-75
2021/09/16 02:42:43;;;;;;;4.30;3.30;;;16.60;86.80;;;;;;5097564;28;20510;-75
2021/09/16 02:45:11;;;;;;;4.60;3.10;;;16.50;87.50;;;;;;5096601;28;20448;-76
2021/09/16 02:47:37;;;;;;;5.77;3.33;;;16.50;88.40;;;;;;5096884;28;20537;-76
2021/09/16 02:50:06;;;;;;;7.83;4.70;;;16.50;88.70;;;;;;5096948;28;20460;-75
2021/09/16 02:52:33;;;;;;;6.70;3.43;;;16.60;89.10;;;;;;5096743;28;20435;-75
2021/09/16 02:55:00;;;;;;;5.63;3.90;;;16.60;89.00;;;;;;5096407;28;20456;-75
2021/09/16 02:57:27;;;;;;;4.90;3.57;;;16.60;88.70;;;;;;5096419;28;20428;-75
2021/09/16 02:59:53;;;;;;;6.60;4.13;;;16.70;88.50;;;;;;5096350;28;20478;-76
2021/09/16 03:02:20;;;;;;;4.57;3.70;;;16.70;88.00;;;;;;5096198;28;20472;-76
2021/09/16 03:04:47;;;;;;;6.50;4.10;;;16.70;87.70;;;;;;5096252;28;20447;-75
2021/09/16 03:07:15;;;;;;;7.03;4.03;;;16.70;87.40;;;;;;5096512;28;20416;-76
2021/09/16 03:09:41;;;;;;;5.83;3.90;;;16.70;87.30;;;;;;5095652;28;20471;-75
2021/09/16 03:12:08;;;;;;;7.93;4.47;;;16.50;87.60;;;;;;5096089;28;20436;-75
2021/09/16 03:14:35;;;;;;;5.47;4.83;;;16.50;87.90;;;;;;5095127;28;20860;-75
2021/09/16 03:17:02;;;;;;;6.70;3.90;;;16.40;87.80;;;;;;5096039;28;20447;-75
2021/09/16 03:19:28;;;;;;;12.73;4.73;;;16.40;87.90;;;;;;5095893;28;20460;-75
2021/09/16 03:21:55;;;;;;;7.40;4.80;;;16.40;88.20;;;;;;5095543;28;20479;-75
2021/09/16 03:24:23;;;;;;;7.13;5.80;;;16.30;88.20;;;;;;5095868;28;20444;-75
2021/09/16 03:26:50;;;;;;;7.50;5.17;;;16.30;88.40;;;;;;5095774;28;20440;-75
2021/09/16 03:29:16;;;;;;;7.57;5.23;;;16.20;88.40;;;;;;5095734;28;20443;-75
2021/09/16 03:31:43;;;;;;;5.83;4.63;;;16.20;88.90;;;;;;5095704;28;20442;-75
2021/09/16 03:34:10;;;;;;;12.30;5.50;;;16.10;89.10;;;;;;5095646;28;20450;-75
2021/09/16 03:36:37;;;;;;;7.73;6.27;;;16.00;89.30;;;;;;5095638;28;20447;-75
2021/09/16 03:39:04;;;;;;;14.50;6.37;;;16.00;89.90;;;;;;5095525;28;20447;-75
2021/09/16 03:41:32;;;;;;;7.97;5.90;;;16.00;90.10;;;;;;5095457;28;20475;-75
2021/09/16 03:43:59;;;;;;;10.30;6.17;;;16.00;90.30;;;;;;5095529;28;20446;-75
2021/09/16 03:46:26;;;;;;;11.57;6.00;;;15.90;90.50;;;;;;5095467;28;20439;-75
2021/09/16 03:48:53;;;;;;;7.43;6.07;;;15.80;90.50;;;;;;5095379;28;20451;-75
2021/09/16 03:51:20;;;;;;;9.93;6.90;;;15.80;90.60;;;;;;5095357;28;20516;-75
2021/09/16 03:53:46;;;;;;;6.33;5.70;;;15.70;90.70;;;;;;5095317;28;20451;-75
2021/09/16 03:56:13;;;;;;;12.40;6.33;;;15.70;90.70;;;;;;5095191;28;20447;-75
2021/09/16 03:58:41;;;;;;;6.83;6.10;;;15.70;90.80;;;;;;5095058;28;20450;-75
2021/09/16 04:01:09;;;;;;;9.10;5.97;;;15.70;90.70;;;;;;5094886;28;20483;-75
2021/09/16 04:03:36;;;;;;;10.83;6.20;;;15.60;90.80;;;;;;5095207;28;20448;-75
2021/09/16 04:06:03;;;;;;;10.27;4.87;;;15.60;90.90;;;;;;5094728;28;20809;-75
2021/09/16 04:08:29;;;;;;;9.50;5.20;;;15.60;90.90;;;;;;5095234;28;20443;-75
2021/09/16 04:10:56;;;;;;;5.50;4.70;;;15.60;90.90;;;;;;5094811;28;20563;-75
2021/09/16 04:13:23;;;;;;;9.70;4.83;;;15.50;91.00;;;;;;5094636;28;20448;-75
2021/09/16 04:15:51;;;;;;;9.73;4.80;;;15.50;90.90;;;;;;5094842;28;20444;-75
2021/09/16 04:18:18;;;;;;;10.70;5.63;;;15.50;90.90;;;;;;5094824;28;20440;-75
2021/09/16 04:20:44;;;;;;;5.87;5.27;;;15.50;91.00;;;;;;5094754;28;20466;-75
2021/09/16 04:23:12;;;;;;;6.97;4.90;;;15.50;91.00;;;;;;5095334;28;20439;-75
2021/09/16 04:25:39;;;;;;;9.00;5.47;;;15.50;91.00;;;;;;5094570;28;20447;-75
2021/09/16 04:28:06;;;;;;;5.37;4.53;;;15.50;91.00;;;;;;5094483;28;20447;-75
2021/09/16 04:30:32;;;;;;;5.13;4.73;;;15.40;91.10;;;;;;5094157;28;20857;-75
2021/09/16 04:33:00;;;;;;;7.27;4.47;;;15.40;91.10;;;;;;5094558;28;20472;-75
2021/09/16 04:35:27;;;;;;;5.30;4.63;;;15.40;91.20;;;;;;5094258;28;20798;-75
2021/09/16 04:37:54;;;;;;;8.50;5.03;;;15.50;91.10;;;;;;5094451;28;20857;-75
2021/09/16 04:40:21;;;;;;;8.87;4.83;;;15.50;91.00;;;;;;5094387;28;20459;-75
2021/09/16 04:42:48;;;;;;;11.77;4.70;;;15.50;91.00;;;;;;5094268;28;20463;-75
2021/09/16 04:45:15;;;;;;;8.73;4.87;;;15.50;90.90;;;;;;5094399;28;20436;-75
2021/09/16 04:47:41;;;;;;;8.33;4.47;;;15.50;90.90;;;;;;5094241;28;20439;-75
2021/09/16 04:50:11;;;;;;;5.57;4.27;;;15.50;90.90;;;;;;5094138;28;20794;-75
2021/09/16 04:52:38;;;;;;;8.60;4.70;;;15.50;90.90;;;;;;5093951;28;20893;-75
2021/09/16 04:55:05;;;;;;;8.77;4.50;;;15.40;90.80;;;;;;5094149;28;20439;-75
2021/09/16 04:57:32;;;;;;;6.30;4.73;;;15.40;90.90;;;;;;5094084;28;20443;-75
2021/09/16 04:59:59;;;;;;;5.53;4.00;;;15.40;91.00;;;;;;5093983;28;20464;-75
2021/09/16 05:02:25;;;;;;;7.27;4.10;;;15.40;91.20;;;;;;5093658;28;20525;-75
2021/09/16 05:04:52;;;;;;;5.40;4.07;;;15.30;91.20;;;;;;5093986;28;20439;-75
2021/09/16 05:07:20;;;;;;;5.33;3.87;;;15.40;91.30;;;;;;5093586;28;20937;-75
2021/09/16 05:09:47;;;;;;;8.80;3.83;;;15.30;91.40;;;;;;5093513;28;20493;-75
2021/09/16 05:12:13;;;;;;;9.00;4.60;;;15.30;91.60;;;;;;5093856;28;20446;-75
2021/09/16 05:14:40;;;;;;;8.13;5.90;;;15.30;91.70;;;;;;5093834;28;20465;-75
2021/09/16 05:17:07;;;;;;;6.20;4.07;;;15.30;91.70;;;;;;5093850;28;20435;-75
2021/09/16 05:19:34;;;;;;;9.20;5.10;;;15.30;91.70;;;;;;5093404;28;20987;-75
2021/09/16 05:22:00;;;;;;;5.90;4.00;;;15.20;91.80;;;;;;5093954;28;20472;-75
2021/09/16 05:24:28;;;;;;;9.00;4.60;;;15.20;92.00;;;;;;5093404;28;20439;-75
2021/09/16 05:26:55;;;;;;;7.73;5.93;;;15.20;92.10;;;;;;5093685;28;20439;-75
2021/09/16 05:29:22;;;;;;;8.30;6.00;;;15.20;92.40;;;;;;5093607;28;20464;-75
2021/09/16 05:31:49;;;;;;;7.20;5.33;;;15.20;92.60;;;;;;5093843;28;20440;-75
2021/09/16 05:34:15;;;;;;;10.33;6.70;;;15.20;92.50;;;;;;5093593;28;20447;-75
2021/09/16 05:36:42;;;;;;;7.50;6.70;;;15.20;92.70;;;;;;5093194;28;20444;-75
2021/09/16 05:39:10;;;;;;;11.67;7.17;;;15.20;92.90;;;;;;5093348;28;20443;-75
2021/09/16 05:41:38;;;;;;;10.03;6.37;;;15.30;92.90;;;;;;5093473;28;20553;-75
2021/09/16 05:44:05;;;;;;;10.80;6.57;;;15.30;92.90;;;;;;5093499;28;20443;-75
2021/09/16 05:46:33;;;;;;;10.50;7.20;;;15.30;92.90;;;;;;5093179;28;20816;-75
2021/09/16 05:49:00;;;;;;;11.20;7.20;;;15.20;93.20;;;;;;5093431;28;20456;-75
2021/09/16 05:51:26;;;;;;;9.37;7.30;;;15.20;93.30;;;;;;5093361;28;20466;-75
2021/09/16 05:53:53;;;;;;;11.40;7.33;;;15.30;93.20;;;;;;5093447;28;20789;-75
2021/09/16 05:56:20;;;;;;;16.80;8.07;;;15.30;93.20;;;;;;5093399;28;20447;-75
2021/09/16 05:58:48;;;;;;;10.90;8.27;;;15.30;93.20;;;;;;5093457;28;20444;-75
2021/09/16 06:01:15;;;;;;;12.10;7.93;;;15.30;93.30;;;;;;5092998;28;20468;-75
2021/09/16 06:03:42;;;;;;;10.63;8.07;;;15.40;93.40;;;;;;5093241;28;20486;-75
2021/09/16 06:06:09;;;;;;;15.23;7.90;;;15.50;93.40;;;;;;5093291;28;20443;-75
2021/09/16 06:08:35;;;;;;;13.17;9.20;;;15.50;93.20;;;;;;5093222;28;20452;-75
2021/09/16 06:11:02;;;;;;;9.73;7.70;;;15.60;93.20;;;;;;5092879;28;20896;-75
2021/09/16 06:13:29;;;;;;;13.93;8.33;;;15.60;93.10;;;;;;5093786;28;20442;-75
2021/09/16 06:15:57;;;;;;;12.33;8.87;;;15.60;93.00;;;;;;5092953;28;20836;-75
2021/09/16 06:18:23;;;;;;;9.50;8.50;;;15.60;93.00;;;;;;5092888;28;20821;-75
2021/09/16 06:20:50;;;;;;;11.93;9.37;;;15.60;93.10;;;;;;5093140;28;20463;-75
2021/09/16 06:23:17;;;;;;;15.00;9.30;;;15.60;93.20;;;;;;5093122;28;20486;-75
2021/09/16 06:25:44;;;;;;;12.40;8.63;;;15.70;93.20;;;;;;5093114;28;20448;-75
2021/09/16 06:28:11;;;;;;;13.50;8.97;;;15.70;93.00;;;;;;5092769;28;20817;-75
2021/09/16 06:30:37;;;;;;;16.80;10.70;;;15.70;93.40;;;;;;5092990;28;20471;-75
2021/09/16 06:33:05;;;;;;;15.80;9.10;;;15.60;93.20;;;;;;5093121;28;20440;-75
2021/09/16 06:35:32;;;;;;;16.03;8.07;;;15.70;93.40;;;;;;5093134;28;20428;-75
2021/09/16 06:37:59;;;;;;;17.73;10.70;;;15.70;93.30;;;;;;5093072;28;20847;-75
2021/09/16 06:40:26;;;;;;;15.57;9.80;;;15.70;93.60;;;;;;5092580;28;20874;-75
2021/09/16 06:42:53;;;;;;;17.30;9.57;;;15.70;93.20;;;;;;5093232;28;20460;-75
2021/09/16 06:45:19;;;;;;;13.90;10.40;;;15.70;93.30;;;;;;5092918;28;20484;-75
2021/09/16 06:47:46;;;;;;;13.73;10.53;;;15.70;93.40;;;;;;5092674;28;20924;-75
2021/09/16 06:50:14;;;;;;;18.80;10.97;;;15.70;93.50;;;;;;5094849;28;20474;-75
2021/09/16 06:52:41;;;;;;;24.53;11.50;;;15.70;93.60;;;;;;5096481;28;20440;-75
2021/09/16 06:55:08;;;;;;;12.10;8.93;;;15.80;93.50;;;;;;5096393;28;20446;-75
2021/09/16 06:57:35;;;;;;;12.07;9.00;;;15.80;93.40;;;;;;5096490;28;20428;-75
2021/09/16 07:00:01;;;;;;;14.27;9.90;;;15.90;93.40;;;;;;5096300;28;20825;-75
2021/09/16 07:02:29;;;;;;;14.30;9.03;;;16.00;93.50;;;;;;5096238;28;20475;-75
2021/09/16 07:04:56;;;;;;;13.47;9.23;;;16.10;93.60;;;;;;5096298;28;20444;-75
2021/09/16 07:07:24;;;;;;;14.23;10.10;;;16.20;93.50;;;;;;5096266;28;20444;-75
2021/09/16 07:09:51;;;;;;;14.10;9.30;;;16.30;93.10;;;;;;5096075;28;20479;-75
2021/09/16 07:12:17;;;;;;;14.03;9.37;;;16.30;93.20;;;;;;5096118;28;20439;-75
2021/09/16 07:14:44;;;;;;;15.40;10.13;;;16.40;93.20;;;;;;5096075;28;20444;-75
2021/09/16 07:17:12;;;;;;;11.33;9.17;;;16.50;93.10;;;;;;5096047;28;20447;-75
2021/09/16 07:19:38;;;;;;;10.27;8.80;;;16.50;92.90;;;;;;5095935;28;20492;-75
2021/09/16 07:22:06;;;;;;;12.93;10.13;;;16.60;92.80;;;;;;5095797;28;20475;-75
2021/09/16 07:24:34;;;;;;;11.33;8.90;;;16.60;92.80;;;;;;5095923;28;20439;-75
2021/09/16 07:27:01;;;;;;;14.80;9.57;;;16.70;92.60;;;;;;5095898;28;20891;-75
2021/09/16 07:29:27;;;;;;;10.57;8.40;;;16.70;92.80;;;;;;5095749;28;20467;-75
2021/09/16 07:31:55;;;;;;;10.33;8.50;;;16.80;92.70;;;;;;5095732;28;20451;-75
2021/09/16 07:34:22;;;;;;;13.47;8.57;;;17.00;92.50;;;;;;5095699;28;20440;-75
2021/09/16 07:36:49;;;;;;;12.37;9.17;;;17.10;92.20;;;;;;5095643;28;20444;-75
2021/09/16 07:39:18;;;;;;;11.37;8.50;;;17.20;91.60;;;;;;5095530;28;20450;-75
2021/09/16 07:41:47;;;;;;;9.73;8.37;;;17.30;91.40;;;;;;5095660;28;20451;-75
2021/09/16 07:44:14;;;;;;;12.60;8.20;;;17.50;91.60;;;;;;5095488;28;20528;-75
2021/09/16 07:46:41;;;;;;;16.50;8.83;;;17.50;91.30;;;;;;5095448;28;20805;-75
2021/09/16 07:49:08;;;;;;;9.73;8.73;;;17.60;91.10;;;;;;5095324;28;20443;-75
2021/09/16 07:51:34;;;;;;;9.67;8.00;;;17.70;90.80;;;;;;5095061;28;20987;-75
2021/09/16 07:54:01;;;;;;;10.40;8.50;;;17.80;90.80;;;;;;5095297;28;20444;-75
2021/09/16 07:56:28;;;;;;;9.93;7.93;;;17.90;90.50;;;;;;5095204;28;20451;-75
2021/09/16 07:58:56;;;;;;;16.57;8.27;;;17.90;90.00;;;;;;5095495;28;20440;-75
2021/09/16 08:01:22;;;;;;;13.37;8.23;;;17.90;89.10;;;;;;5094950;28;20468;-75
2021/09/16 08:03:49;;;;;;;10.57;6.90;;;18.00;89.20;;;;;;5094712;28;21007;-75
2021/09/16 08:06:17;;;;;;;13.23;7.40;;;18.10;89.50;;;;;;5095646;28;20455;-75
2021/09/16 08:08:44;;;;;;;9.97;7.90;;;18.20;89.20;;;;;;5095034;28;20443;-75
2021/09/16 08:11:10;;;;;;;11.17;7.70;;;18.30;89.10;;;;;;5094482;28;20498;-75
2021/09/16 08:13:37;;;;;;;12.93;7.57;;;18.20;88.20;;;;;;5094952;28;20469;-75
2021/09/16 08:16:05;;;;;;;16.47;8.27;;;18.30;88.90;;;;;;5094979;28;20424;-75
2021/09/16 08:18:32;;;;;;;7.10;6.47;;;18.40;87.50;;;;;;5094617;28;20922;-76
2021/09/16 08:20:59;;;;;;;9.00;6.80;;;18.50;86.40;;;;;;5094741;28;20487;-75
2021/09/16 08:23:26;;;;;;;9.13;7.57;;;18.50;86.30;;;;;;5094631;28;20837;-75
2021/09/16 08:25:52;;;;;;;8.77;5.90;;;18.50;86.60;;;;;;5094371;28;20951;-75
2021/09/16 08:28:20;;;;;;;6.93;6.23;;;18.60;87.10;;;;;;5094711;28;20440;-76
2021/09/16 08:30:47;;;;;;;8.80;6.20;;;18.70;85.10;;;;;;5094570;28;20555;-76
2021/09/16 08:33:16;;;;;;;7.33;5.83;;;18.80;85.20;;;;;;5094671;28;20424;-76
2021/09/16 08:35:43;;;;;;;8.93;6.10;;;18.80;85.00;;;;;;5094526;28;20447;-77
2021/09/16 08:38:10;;;;;;;7.83;5.70;;;18.90;84.30;;;;;;5094486;28;20450;-76
2021/09/16 08:40:37;;;;;;;12.90;5.50;;;18.90;84.80;;;;;;5094627;28;20460;-76
2021/09/16 08:43:05;;;;;;;7.20;5.17;;;19.00;84.00;;;;;;5094331;28;20484;-76
2021/09/16 08:45:33;;;;;;;10.43;4.93;;;19.00;84.30;;;;;;5094437;28;20424;-76
2021/09/16 08:47:59;;;;;;;12.83;5.77;;;19.00;83.30;;;;;;5094300;28;20439;-76
2021/09/16 08:50:30;;;;;;;5.70;5.10;;;19.10;84.30;;;;;;5094252;28;20471;-76
2021/09/16 08:52:57;;;;;;;9.30;4.40;;;19.20;84.50;;;;;;5094233;28;20787;-76
2021/09/16 08:55:25;;;;;;;9.30;3.57;;;19.20;81.90;;;;;;5095292;28;20428;-76
2021/09/16 08:57:57;;;;;;;7.23;3.97;;;19.00;79.90;;;;;;5094149;28;20448;-76
2021/09/16 09:00:26;;;;;;;5.43;3.90;;;19.10;81.30;;;;;;5094145;28;20459;-75
2021/09/16 09:02:54;;;;;;;7.93;3.70;;;19.10;80.90;;;;;;5094144;28;20482;-75
2021/09/16 09:05:22;;;;;;;15.43;4.10;;;19.20;80.90;;;;;;5093659;28;20818;-75
2021/09/16 09:07:53;;;;;;;5.30;3.40;;;19.30;80.70;;;;;;5094062;28;20428;-76
2021/09/16 09:10:40;;;;;;;5.10;2.87;;;19.50;79.10;;;;;;5093881;28;20471;-76
2021/09/16 09:13:09;;;;;;;3.57;2.97;;;19.50;76.60;;;;;;5093491;28;20420;-75
2021/09/16 09:15:38;;;;;;;3.00;2.43;;;19.60;76.30;;;;;;5093934;28;20473;-75
2021/09/16 09:18:07;;;;;;;4.60;2.50;;;19.70;74.40;;;;;;5093864;28;20432;-75
2021/09/16 09:20:52;;;;;;;4.43;2.87;;;19.60;73.40;;;;;;5093783;28;20463;-75
2021/09/16 09:23:25;;;;;;;4.03;2.50;;;19.70;74.10;;;;;;5093671;28;20475;-76
2021/09/16 09:25:52;;;;;;;3.83;2.23;;;19.90;72.80;;;;;;5093753;28;20819;-75
2021/09/16 09:28:28;;;;;;;3.93;2.70;;;19.90;72.20;;;;;;5093616;28;20790;-75
2021/09/16 09:30:55;;;;;;;9.60;3.80;;;20.10;74.10;;;;;;5093308;28;20973;-75
2021/09/16 09:33:31;;;;;;;9.70;3.77;;;20.20;71.00;;;;;;5093613;28;20416;-74
2021/09/16 09:36:07;;;;;;;4.60;2.73;;;20.40;72.70;;;;;;5093310;28;20812;-75
2021/09/16 09:38:48;;;;;;;8.00;3.83;;;20.60;71.40;;;;;;5093640;28;20428;-75
2021/09/16 09:41:28;;;;;;;3.80;2.60;;;20.90;70.50;;;;;;5093601;28;20504;-75
2021/09/16 09:44:10;;;;;;;8.57;2.63;;;21.20;68.60;;;;;;5093526;28;20472;-76
2021/09/16 09:46:42;;;;;;;6.00;3.00;;;21.30;68.50;;;;;;5093255;28;20428;-76
2021/09/16 09:49:10;;;;;;;7.77;3.10;;;21.50;67.10;;;;;;5093064;28;20980;-76
2021/09/16 09:51:39;;;;;;;3.40;1.97;;;21.60;65.40;;;;;;5093483;28;20424;-76
2021/09/16 09:54:22;;;;;;;3.90;1.90;;;21.90;66.80;;;;;;5093439;28;20436;-76
2021/09/16 09:57:14;;;;;;;2.00;1.53;;;22.20;64.00;;;;;;5093460;28;20438;-76
2021/09/16 10:00:09;;;;;;;6.33;1.80;;;22.30;59.40;;;;;;5078534;28;20479;-75
2021/09/16 10:02:49;;;;;;;3.80;1.67;;;22.30;61.00;;;;;;5093361;28;20489;-76
2021/09/16 10:05:25;;;;;;;4.00;1.50;;;22.30;60.60;;;;;;5093056;28;20872;-75
2021/09/16 10:07:52;;;;;;;4.27;2.10;;;22.60;61.20;;;;;;5093021;28;20428;-77
2021/09/16 10:10:22;;;;;;;3.03;2.40;;;22.80;61.10;;;;;;5092882;28;20490;-74
2021/09/16 10:12:51;;;;;;;1.97;1.50;;;23.00;58.90;;;;;;5093425;28;20581;-75
2021/09/16 10:15:20;;;;;;;2.80;1.90;;;22.80;58.80;;;;;;5092965;28;20448;-75
2021/09/16 10:17:48;;;;;;;3.33;1.90;;;23.00;59.20;;;;;;5093282;28;20444;-75
2021/09/16 10:20:17;;;;;;;3.83;1.73;;;23.20;58.70;;;;;;5092889;28;20968;-75
2021/09/16 10:22:46;;;;;;;4.17;2.03;;;23.40;58.00;;;;;;5093092;28;20428;-75
2021/09/16 10:25:16;;;;;;;3.13;1.90;;;23.90;56.80;;;;;;5097108;28;20448;-75
2021/09/16 10:27:45;;;;;;;3.63;2.30;;;24.50;55.00;;;;;;5097025;28;20423;-75
2021/09/16 10:30:42;;;;;;;3.77;2.30;;;24.90;52.60;;;;;;5096961;28;20467;-75
2021/09/16 10:33:12;;;;;;;3.03;1.83;;;24.80;51.40;;;;;;5096904;28;20443;-76
2021/09/16 10:35:40;;;;;;;2.30;1.40;;;24.30;52.10;;;;;;5096883;28;20423;-75
2021/09/16 10:38:29;;;;;;;4.13;1.50;;;24.30;53.10;;;;;;5096815;28;20432;-76
2021/09/16 10:41:19;;;;;;;2.20;1.40;;;24.90;53.30;;;;;;5096741;28;20472;-76
2021/09/16 10:43:51;;;;;;;5.50;1.70;;;25.10;51.20;;;;;;5096692;28;20467;-76
2021/09/16 10:46:27;;;;;;;3.80;1.53;;;25.00;50.00;;;;;;5096685;28;20435;-76
2021/09/16 10:48:54;;;;;;;1.60;1.30;;;24.50;51.30;;;;;;5096685;28;20459;-76
2021/09/16 10:51:40;;;;;;;2.80;1.47;;;23.90;52.30;;;;;;5096499;28;20463;-76
2021/09/16 10:54:38;;;;;;;6.37;1.60;;;23.50;53.50;;;;;;5096222;28;20428;-76
2021/09/16 10:57:07;;;;;;;3.53;1.80;;;23.10;53.90;;;;;;5090777;28;20444;-76
2021/09/16 11:00:05;;;;;;;2.87;2.00;;;22.90;54.90;;;;;;5096231;28;20464;-77
2021/09/16 11:03:09;;;;;;;2.10;1.73;;;23.20;55.20;;;;;;5096379;28;20455;-76
2021/09/16 11:05:46;;;;;;;3.60;2.30;;;23.50;54.90;;;;;;5096272;28;20484;-76
2021/09/16 11:08:14;;;;;;;2.40;1.50;;;23.60;54.00;;;;;;5095703;28;20917;-76
2021/09/16 11:10:48;;;;;;;2.40;1.20;;;23.70;53.20;;;;;;5095451;28;20475;-76
2021/09/16 11:13:49;;;;;;;4.70;1.70;;;24.10;53.30;;;;;;5096528;28;20459;-76
2021/09/16 11:16:30;;;;;;;3.07;1.80;;;24.50;52.00;;;;;;5096057;28;20864;-76
2021/09/16 11:19:01;;;;;;;3.20;1.90;;;24.70;52.80;;;;;;5095877;28;20428;-76
2021/09/16 11:21:28;;;;;;;2.80;1.90;;;24.90;51.40;;;;;;5095844;28;20464;-76
2021/09/16 11:23:55;;;;;;;5.83;1.80;;;25.20;52.00;;;;;;5095800;28;20532;-74
2021/09/16 11:26:23;;;;;;;2.80;1.57;;;25.80;50.40;;;;;;5095815;28;20428;-75
2021/09/16 11:29:01;;;;;;;4.13;1.43;;;26.10;48.30;;;;;;5095888;28;20433;-75
2021/09/16 11:31:30;;;;;;;2.40;2.00;;;26.20;48.40;;;;;;5095722;28;20467;-75
2021/09/16 11:34:11;;;;;;;3.03;1.77;;;26.10;47.80;;;;;;5096048;28;20494;-75
2021/09/16 11:36:38;;;;;;;4.67;2.00;;;25.80;48.60;;;;;;5094967;28;20431;-76
2021/09/16 11:39:15;;;;;;;5.30;1.30;;;25.80;49.50;;;;;;5095380;28;20768;-74
2021/09/16 11:41:42;;;;;;;2.63;1.60;;;26.30;49.00;;;;;;5095229;28;20924;-75
2021/09/16 11:44:09;;;;;;;4.73;1.70;;;26.60;48.00;;;;;;5095440;28;20823;-75
2021/09/16 11:46:37;;;;;;;2.87;1.67;;;26.50;47.30;;;;;;5095465;28;20431;-75
2021/09/16 11:49:04;;;;;;;4.70;1.60;;;26.10;47.00;;;;;;5095428;28;20435;-74
2021/09/16 11:51:31;;;;;;;1.80;1.50;;;25.80;47.40;;;;;;5095440;28;20428;-75
2021/09/16 11:54:11;;;;;;;1.93;1.20;;;25.60;47.80;;;;;;5095331;28;20428;-76
2021/09/16 11:56:37;;;;;;;3.30;1.40;;;25.30;48.70;;;;;;5095264;28;20424;-74
2021/09/16 11:59:08;;;;;;;4.70;1.27;;;25.00;49.50;;;;;;5096205;28;20440;-75
2021/09/16 12:01:36;;;;;;;3.00;1.07;;;24.90;50.10;;;;;;5095136;28;20431;-75
2021/09/16 12:04:03;;;;;;;2.60;1.63;;;24.90;49.70;;;;;;5095204;28;20503;-75
2021/09/16 12:06:34;;;;;;;3.97;1.63;;;25.20;49.90;;;;;;5095143;28;20440;-74
2021/09/16 12:09:02;;;;;;;3.63;1.33;;;25.30;49.00;;;;;;5094520;28;20962;-75
2021/09/16 12:11:30;;;;;;;7.30;1.73;;;25.10;49.80;;;;;;5094403;28;20988;-76
2021/09/16 12:13:58;;;;;;;3.40;1.10;;;24.80;50.20;;;;;;5095034;28;20427;-75
2021/09/16 12:16:27;;;;;;;3.00;1.10;;;24.50;51.30;;;;;;5095006;28;20431;-75
2021/09/16 12:18:58;;;;;;;3.07;1.57;;;24.50;52.10;;;;;;5094908;28;20444;-74
2021/09/16 12:21:27;;;;;;;3.77;1.57;;;24.60;52.50;;;;;;5094788;28;20866;-76
2021/09/16 12:23:56;;;;;;;1.30;1.20;;;24.50;51.50;;;;;;5095157;28;20476;-75
2021/09/16 12:26:25;;;;;;;1.80;1.20;;;24.70;50.40;;;;;;5094769;28;20440;-75
2021/09/16 12:29:00;;;;;;;1.43;1.20;;;24.90;51.20;;;;;;5094748;28;20424;-75
2021/09/16 12:31:31;;;;;;;2.93;1.30;;;24.80;50.90;;;;;;5094620;28;20459;-76
2021/09/16 12:34:03;;;;;;;2.53;1.30;;;24.80;50.90;;;;;;5094643;28;20420;-75
2021/09/16 12:36:30;;;;;;;4.60;1.13;;;25.30;51.30;;;;;;5112098;22;20872;-71
2021/09/16 12:39:05;;;;;;;0.83;0.83;;;26.00;49.40;;;;;;5054007;28;20448;-71
2021/09/16 12:41:38;;;;;;;2.03;1.10;;;26.80;46.90;;;;;;5054179;28;20832;-71
2021/09/16 12:44:13;;;;;;;1.97;1.50;;;27.20;45.50;;;;;;5054177;28;20479;-71
2021/09/16 12:46:52;;;;;;;2.50;1.37;;;27.10;44.10;;;;;;5058879;28;20991;-71
2021/09/16 12:49:25;;;;;;;3.47;1.30;;;26.80;44.80;;;;;;5074067;28;20431;-71
2021/09/16 12:51:57;;;;;;;5.23;1.70;;;26.50;45.50;;;;;;5074060;28;20435;-71